sensor_id;sensor_type;location;lat;lon;timestamp;pressure;altitude;pressure_sealevel;temperature;humidity
32298;BME280;18782;48.984;8.548;2023-02-13T00:00:44;101960.66;;;1.27;96.80
32298;BME280;18782;48.984;8.548;2023-02-13T00:03:12;101956.94;;;1.23;96.75
32298;BME280;18782;48.984;8.548;2023-02-13T00:05:40;101958.44;;;1.21;97.13
32298;BME280;18782;48.984;8.548;2023-02-13T00:08:07;101952.78;;;1.15;97.13
32298;BME280;18782;48.984;8.548;2023-02-13T00:10:36;101950.97;;;1.14;97.64
32298;BME280;18782;48.984;8.548;2023-02-13T00:13:05;101949.19;;;1.13;97.54
32298;BME280;18782;48.984;8.548;2023-02-13T00:15:32;101949.34;;;1.15;97.84
32298;BME280;18782;48.984;8.548;2023-02-13T00:18:00;101956.06;;;1.14;97.25
32298;BME280;18782;48.984;8.548;2023-02-13T00:20:28;101966.81;;;1.12;96.76
32298;BME280;18782;48.984;8.548;2023-02-13T00:22:57;101958.16;;;1.10;97.18
32298;BME280;18782;48.984;8.548;2023-02-13T00:25:24;101965.94;;;1.11;97.27
32298;BME280;18782;48.984;8.548;2023-02-13T00:27:52;101971.75;;;1.10;96.91
32298;BME280;18782;48.984;8.548;2023-02-13T00:30:21;101957.56;;;1.12;97.41
32298;BME280;18782;48.984;8.548;2023-02-13T00:32:50;101965.31;;;1.14;96.53
32298;BME280;18782;48.984;8.548;2023-02-13T00:35:17;101967.72;;;1.12;96.83
32298;BME280;18782;48.984;8.548;2023-02-13T00:37:45;101972.34;;;1.16;96.27
32298;BME280;18782;48.984;8.548;2023-02-13T00:40:13;101960.66;;;1.18;95.86
32298;BME280;18782;48.984;8.548;2023-02-13T00:42:40;101959.78;;;1.18;95.97
32298;BME280;18782;48.984;8.548;2023-02-13T00:45:08;101954.56;;;1.16;95.95
32298;BME280;18782;48.984;8.548;2023-02-13T00:47:37;101952.47;;;1.21;95.76
32298;BME280;18782;48.984;8.548;2023-02-13T00:50:06;101956.34;;;1.17;95.55
32298;BME280;18782;48.984;8.548;2023-02-13T00:52:35;101945.19;;;1.15;95.63
32298;BME280;18782;48.984;8.548;2023-02-13T00:55:03;101950.97;;;1.14;95.69
32298;BME280;18782;48.984;8.548;2023-02-13T00:57:30;101944.88;;;1.12;96.25
32298;BME280;18782;48.984;8.548;2023-02-13T00:59:58;101944.75;;;1.11;96.10
32298;BME280;18782;48.984;8.548;2023-02-13T01:02:26;101948.63;;;1.07;95.77
32298;BME280;18782;48.984;8.548;2023-02-13T01:04:56;101950.88;;;1.04;96.30
32298;BME280;18782;48.984;8.548;2023-02-13T01:07:23;101959.97;;;1.02;96.32
32298;BME280;18782;48.984;8.548;2023-02-13T01:09:51;101949.53;;;0.99;96.02
32298;BME280;18782;48.984;8.548;2023-02-13T01:12:18;101960.59;;;0.99;95.98
32298;BME280;18782;48.984;8.548;2023-02-13T01:14:46;101955.22;;;0.96;96.05
32298;BME280;18782;48.984;8.548;2023-02-13T01:17:16;101951.81;;;0.96;96.83
32298;BME280;18782;48.984;8.548;2023-02-13T01:19:43;101946.44;;;0.93;96.41
32298;BME280;18782;48.984;8.548;2023-02-13T01:22:12;101945.66;;;0.94;97.18
32298;BME280;18782;48.984;8.548;2023-02-13T01:24:40;101949.72;;;0.92;97.31
32298;BME280;18782;48.984;8.548;2023-02-13T01:27:07;101948.69;;;0.90;97.74
32298;BME280;18782;48.984;8.548;2023-02-13T01:29:35;101944.94;;;0.95;98.09
32298;BME280;18782;48.984;8.548;2023-02-13T01:32:03;101944.78;;;0.93;97.98
32298;BME280;18782;48.984;8.548;2023-02-13T01:34:32;101945.09;;;0.96;98.74
32298;BME280;18782;48.984;8.548;2023-02-13T01:37:00;101938.22;;;0.95;98.37
32298;BME280;18782;48.984;8.548;2023-02-13T01:39:29;101939.13;;;0.96;98.84
32298;BME280;18782;48.984;8.548;2023-02-13T01:41:56;101940.59;;;0.94;98.61
32298;BME280;18782;48.984;8.548;2023-02-13T01:44:45;101937.63;;;0.98;98.72
32298;BME280;18782;48.984;8.548;2023-02-13T01:47:17;101942.41;;;0.95;98.69
32298;BME280;18782;48.984;8.548;2023-02-13T01:49:47;101941.66;;;0.96;98.71
32298;BME280;18782;48.984;8.548;2023-02-13T01:52:17;101943.00;;;0.92;98.75
32298;BME280;18782;48.984;8.548;2023-02-13T01:54:46;101941.66;;;0.96;99.89
32298;BME280;18782;48.984;8.548;2023-02-13T01:57:17;101945.97;;;0.97;99.83
32298;BME280;18782;48.984;8.548;2023-02-13T01:59:51;101944.47;;;0.99;99.98
32298;BME280;18782;48.984;8.548;2023-02-13T02:02:21;101949.25;;;1.04;100.00
32298;BME280;18782;48.984;8.548;2023-02-13T02:04:50;101947.16;;;1.00;100.00
32298;BME280;18782;48.984;8.548;2023-02-13T02:07:21;101949.09;;;1.03;100.00
32298;BME280;18782;48.984;8.548;2023-02-13T02:09:54;101950.72;;;1.02;100.00
32298;BME280;18782;48.984;8.548;2023-02-13T02:12:26;101950.47;;;0.99;98.78
32298;BME280;18782;48.984;8.548;2023-02-13T02:14:58;101950.47;;;0.99;99.43
32298;BME280;18782;48.984;8.548;2023-02-13T02:17:29;101957.00;;;0.97;99.17
32298;BME280;18782;48.984;8.548;2023-02-13T02:20:10;101956.13;;;0.97;98.93
32298;BME280;18782;48.984;8.548;2023-02-13T02:23:05;101956.44;;;0.91;98.84
32298;BME280;18782;48.984;8.548;2023-02-13T02:26:00;101943.31;;;0.87;98.69
32298;BME280;18782;48.984;8.548;2023-02-13T02:29:09;101950.16;;;0.88;99.13
32298;BME280;18782;48.984;8.548;2023-02-13T02:34:47;101944.81;;;0.85;99.10
32298;BME280;18782;48.984;8.548;2023-02-13T02:37:29;101940.34;;;0.82;98.71
32298;BME280;18782;48.984;8.548;2023-02-13T02:40:12;101940.50;;;0.84;98.58
32298;BME280;18782;48.984;8.548;2023-02-13T02:42:59;101934.69;;;0.85;98.74
32298;BME280;18782;48.984;8.548;2023-02-13T02:45:38;101926.31;;;0.86;98.89
32298;BME280;18782;48.984;8.548;2023-02-13T02:48:27;101930.38;;;0.84;99.02
32298;BME280;18782;48.984;8.548;2023-02-13T02:51:22;101933.19;;;0.87;99.05
32298;BME280;18782;48.984;8.548;2023-02-13T02:54:02;101930.63;;;0.87;98.43
32298;BME280;18782;48.984;8.548;2023-02-13T02:56:53;101931.41;;;0.86;98.35
32298;BME280;18782;48.984;8.548;2023-02-13T02:59:27;101931.97;;;0.83;97.85
32298;BME280;18782;48.984;8.548;2023-02-13T03:02:14;101928.56;;;0.83;98.31
32298;BME280;18782;48.984;8.548;2023-02-13T03:05:02;101927.53;;;0.81;98.35
32298;BME280;18782;48.984;8.548;2023-02-13T03:07:48;101935.28;;;0.82;97.81
32298;BME280;18782;48.984;8.548;2023-02-13T03:10:26;101931.09;;;0.83;97.55
32298;BME280;18782;48.984;8.548;2023-02-13T03:13:15;101938.13;;;0.76;97.21
32298;BME280;18782;48.984;8.548;2023-02-13T03:15:49;101935.91;;;0.71;96.84
32298;BME280;18782;48.984;8.548;2023-02-13T03:18:37;101934.69;;;0.67;96.73
32298;BME280;18782;48.984;8.548;2023-02-13T03:21:33;101939.19;;;0.61;97.79
32298;BME280;18782;48.984;8.548;2023-02-13T03:24:27;101938.16;;;0.59;97.71
32298;BME280;18782;48.984;8.548;2023-02-13T03:27:03;101944.69;;;0.57;98.04
32298;BME280;18782;48.984;8.548;2023-02-13T03:29:42;101947.25;;;0.57;97.78
32298;BME280;18782;48.984;8.548;2023-02-13T03:32:32;101948.16;;;0.58;97.59
32298;BME280;18782;48.984;8.548;2023-02-13T03:35:14;101949.19;;;0.60;97.30
32298;BME280;18782;48.984;8.548;2023-02-13T03:38:08;101955.91;;;0.59;97.88
32298;BME280;18782;48.984;8.548;2023-02-13T03:40:43;101957.69;;;0.60;97.45
32298;BME280;18782;48.984;8.548;2023-02-13T03:43:30;101963.06;;;0.55;96.99
32298;BME280;18782;48.984;8.548;2023-02-13T03:46:00;101965.44;;;0.53;97.42
32298;BME280;18782;48.984;8.548;2023-02-13T03:48:32;101975.59;;;0.53;96.63
32298;BME280;18782;48.984;8.548;2023-02-13T03:51:22;101976.31;;;0.52;96.75
32298;BME280;18782;48.984;8.548;2023-02-13T03:53:56;101977.81;;;0.50;96.98
32298;BME280;18782;48.984;8.548;2023-02-13T03:56:26;101974.38;;;0.49;95.98
32298;BME280;18782;48.984;8.548;2023-02-13T03:59:18;101984.22;;;0.46;95.32
32298;BME280;18782;48.984;8.548;2023-02-13T04:01:55;101988.13;;;0.43;97.11
32298;BME280;18782;48.984;8.548;2023-02-13T04:04:29;101986.34;;;0.42;96.47
32298;BME280;18782;48.984;8.548;2023-02-13T04:07:01;101985.72;;;0.36;96.68
32298;BME280;18782;48.984;8.548;2023-02-13T04:09:33;101987.22;;;0.34;96.83
32298;BME280;18782;48.984;8.548;2023-02-13T04:12:07;101992.28;;;0.34;96.91
32298;BME280;18782;48.984;8.548;2023-02-13T04:14:39;101980.06;;;0.30;97.40
32298;BME280;18782;48.984;8.548;2023-02-13T04:17:15;101986.63;;;0.28;97.58
32298;BME280;18782;48.984;8.548;2023-02-13T04:19:44;101988.09;;;0.25;96.78
32298;BME280;18782;48.984;8.548;2023-02-13T04:22:11;101989.44;;;0.22;97.34
32298;BME280;18782;48.984;8.548;2023-02-13T04:24:41;101994.94;;;0.18;97.39
32298;BME280;18782;48.984;8.548;2023-02-13T04:27:12;101993.44;;;0.20;97.68
32298;BME280;18782;48.984;8.548;2023-02-13T04:29:40;102001.94;;;0.20;98.21
32298;BME280;18782;48.984;8.548;2023-02-13T04:32:08;101998.81;;;0.14;96.88
32298;BME280;18782;48.984;8.548;2023-02-13T04:34:36;101997.78;;;0.12;98.02
32298;BME280;18782;48.984;8.548;2023-02-13T04:37:04;102002.84;;;0.12;98.18
32298;BME280;18782;48.984;8.548;2023-02-13T04:39:31;102003.59;;;0.11;98.62
32298;BME280;18782;48.984;8.548;2023-02-13T04:42:00;102004.47;;;0.12;97.91
32298;BME280;18782;48.984;8.548;2023-02-13T04:44:28;102000.00;;;0.09;98.52
32298;BME280;18782;48.984;8.548;2023-02-13T04:46:55;101989.56;;;0.06;97.75
32298;BME280;18782;48.984;8.548;2023-02-13T04:49:23;101994.03;;;0.00;97.99
32298;BME280;18782;48.984;8.548;2023-02-13T04:51:51;102001.47;;;-0.02;98.29
32298;BME280;18782;48.984;8.548;2023-02-13T04:54:18;101994.03;;;0.00;98.66
32298;BME280;18782;48.984;8.548;2023-02-13T04:56:46;101999.38;;;-0.06;97.44
32298;BME280;18782;48.984;8.548;2023-02-13T04:59:15;101986.41;;;-0.09;98.22
32298;BME280;18782;48.984;8.548;2023-02-13T05:01:42;101994.91;;;-0.08;99.12
32298;BME280;18782;48.984;8.548;2023-02-13T05:04:11;101983.75;;;-0.10;99.05
32298;BME280;18782;48.984;8.548;2023-02-13T05:06:41;101989.25;;;-0.14;98.67
32298;BME280;18782;48.984;8.548;2023-02-13T05:09:09;101984.19;;;-0.14;99.32
32298;BME280;18782;48.984;8.548;2023-02-13T05:11:37;101980.91;;;-0.13;99.96
32298;BME280;18782;48.984;8.548;2023-02-13T05:14:05;101984.47;;;-0.11;99.91
32298;BME280;18782;48.984;8.548;2023-02-13T05:16:34;101980.91;;;-0.13;99.18
32298;BME280;18782;48.984;8.548;2023-02-13T05:19:01;101975.09;;;-0.12;99.82
32298;BME280;18782;48.984;8.548;2023-02-13T05:21:29;101975.84;;;-0.13;99.14
32298;BME280;18782;48.984;8.548;2023-02-13T05:24:20;101976.69;;;-0.21;98.78
32298;BME280;18782;48.984;8.548;2023-02-13T05:26:47;101974.91;;;-0.22;99.13
32298;BME280;18782;48.984;8.548;2023-02-13T05:29:15;101970.16;;;-0.19;99.85
32298;BME280;18782;48.984;8.548;2023-02-13T05:31:48;101974.81;;;-0.15;100.00
32298;BME280;18782;48.984;8.548;2023-02-13T05:34:16;101980.56;;;-0.16;98.64
32298;BME280;18782;48.984;8.548;2023-02-13T05:36:44;101970.16;;;-0.19;98.82
32298;BME280;18782;48.984;8.548;2023-02-13T05:39:12;101975.22;;;-0.19;99.27
32298;BME280;18782;48.984;8.548;2023-02-13T05:41:40;101966.00;;;-0.19;99.09
32298;BME280;18782;48.984;8.548;2023-02-13T05:44:08;101973.59;;;-0.19;97.85
32298;BME280;18782;48.984;8.548;2023-02-13T05:46:37;101972.84;;;-0.18;98.15
32298;BME280;18782;48.984;8.548;2023-02-13T05:49:07;101984.19;;;-0.14;99.05
32298;BME280;18782;48.984;8.548;2023-02-13T05:51:35;101981.47;;;-0.16;97.72
32298;BME280;18782;48.984;8.548;2023-02-13T05:54:03;101977.00;;;-0.18;97.71
32298;BME280;18782;48.984;8.548;2023-02-13T05:56:31;101976.13;;;-0.19;98.37
32298;BME280;18782;48.984;8.548;2023-02-13T05:58:58;101973.72;;;-0.17;98.62
32298;BME280;18782;48.984;8.548;2023-02-13T06:01:26;101974.81;;;-0.15;98.73
32298;BME280;18782;48.984;8.548;2023-02-13T06:03:54;101972.28;;;-0.15;96.82
32298;BME280;18782;48.984;8.548;2023-02-13T06:06:26;101966.28;;;-0.16;96.49
32298;BME280;18782;48.984;8.548;2023-02-13T06:08:54;101965.09;;;-0.19;95.91
32298;BME280;18782;48.984;8.548;2023-02-13T06:11:22;101962.25;;;-0.22;96.19
32298;BME280;18782;48.984;8.548;2023-02-13T06:13:49;101964.50;;;-0.25;97.17
32298;BME280;18782;48.984;8.548;2023-02-13T06:16:17;101954.38;;;-0.25;97.68
32298;BME280;18782;48.984;8.548;2023-02-13T06:18:45;101959.13;;;-0.29;97.83
32298;BME280;18782;48.984;8.548;2023-02-13T06:21:12;101964.31;;;-0.27;97.62
32298;BME280;18782;48.984;8.548;2023-02-13T06:23:42;101958.22;;;-0.29;97.35
32298;BME280;18782;48.984;8.548;2023-02-13T06:26:09;101955.56;;;-0.31;97.77
32298;BME280;18782;48.984;8.548;2023-02-13T06:28:37;101959.88;;;-0.30;98.22
32298;BME280;18782;48.984;8.548;2023-02-13T06:31:05;101954.81;;;-0.30;97.39
32298;BME280;18782;48.984;8.548;2023-02-13T06:33:33;101959.13;;;-0.29;97.75
32298;BME280;18782;48.984;8.548;2023-02-13T06:36:01;101959.25;;;-0.27;97.19
32298;BME280;18782;48.984;8.548;2023-02-13T06:38:29;101974.03;;;-0.23;98.04
32298;BME280;18782;48.984;8.548;2023-02-13T06:41:00;101967.78;;;-0.18;97.20
32298;BME280;18782;48.984;8.548;2023-02-13T06:43:28;101971.94;;;-0.18;96.38
32298;BME280;18782;48.984;8.548;2023-02-13T06:45:55;101973.88;;;-0.24;96.64
32298;BME280;18782;48.984;8.548;2023-02-13T06:48:24;101975.66;;;-0.23;96.26
32298;BME280;18782;48.984;8.548;2023-02-13T06:50:51;101971.34;;;-0.24;96.65
32298;BME280;18782;48.984;8.548;2023-02-13T06:53:19;101974.31;;;-0.29;96.66
32298;BME280;18782;48.984;8.548;2023-02-13T06:55:50;101975.34;;;-0.27;96.39
32298;BME280;18782;48.984;8.548;2023-02-13T06:58:20;101978.94;;;-0.24;96.59
32298;BME280;18782;48.984;8.548;2023-02-13T07:00:49;101978.94;;;-0.24;96.27
32298;BME280;18782;48.984;8.548;2023-02-13T07:03:17;101985.19;;;-0.30;95.49
32298;BME280;18782;48.984;8.548;2023-02-13T07:05:45;101984.75;;;-0.25;95.65
32298;BME280;18782;48.984;8.548;2023-02-13T07:08:12;101989.81;;;-0.25;95.86
32298;BME280;18782;48.984;8.548;2023-02-13T07:10:40;101999.66;;;-0.20;95.72
32298;BME280;18782;48.984;8.548;2023-02-13T07:13:09;101998.75;;;-0.20;96.35
32298;BME280;18782;48.984;8.548;2023-02-13T07:15:38;101994.59;;;-0.20;96.00
32298;BME280;18782;48.984;8.548;2023-02-13T07:18:05;101993.97;;;-0.17;96.54
32298;BME280;18782;48.984;8.548;2023-02-13T07:20:33;101990.69;;;-0.16;97.25
32298;BME280;18782;48.984;8.548;2023-02-13T07:23:03;101989.25;;;-0.14;97.38
32298;BME280;18782;48.984;8.548;2023-02-13T07:25:31;101988.94;;;-0.09;97.23
32298;BME280;18782;48.984;8.548;2023-02-13T07:28:02;101991.94;;;-0.04;97.07
32298;BME280;18782;48.984;8.548;2023-02-13T07:30:31;101990.44;;;-0.02;96.46
32298;BME280;18782;48.984;8.548;2023-02-13T07:33:02;101995.81;;;0.01;96.69
32298;BME280;18782;48.984;8.548;2023-02-13T07:35:30;101994.63;;;-0.03;96.91
32298;BME280;18782;48.984;8.548;2023-02-13T07:37:58;101992.81;;;0.05;97.39
32298;BME280;18782;48.984;8.548;2023-02-13T07:40:27;101998.22;;;0.08;96.80
32298;BME280;18782;48.984;8.548;2023-02-13T07:42:55;102004.94;;;0.16;97.85
32298;BME280;18782;48.984;8.548;2023-02-13T07:45:22;101998.97;;;0.24;98.12
32298;BME280;18782;48.984;8.548;2023-02-13T07:47:53;101993.78;;;0.32;98.03
32298;BME280;18782;48.984;8.548;2023-02-13T07:50:23;101993.19;;;0.43;98.85
32298;BME280;18782;48.984;8.548;2023-02-13T07:52:53;101995.56;;;0.50;99.13
32298;BME280;18782;48.984;8.548;2023-02-13T07:55:21;101993.91;;;0.59;99.79
32298;BME280;18782;48.984;8.548;2023-02-13T07:57:49;101997.63;;;0.71;100.00
32298;BME280;18782;48.984;8.548;2023-02-13T08:00:18;101992.69;;;0.82;100.00
32298;BME280;18782;48.984;8.548;2023-02-13T08:02:46;101987.75;;;0.92;100.00
32298;BME280;18782;48.984;8.548;2023-02-13T08:05:14;101992.94;;;1.02;100.00
32298;BME280;18782;48.984;8.548;2023-02-13T08:07:43;101993.66;;;1.18;100.00
32298;BME280;18782;48.984;8.548;2023-02-13T08:10:12;101987.22;;;1.30;100.00
32298;BME280;18782;48.984;8.548;2023-02-13T08:12:57;101988.56;;;2.66;100.00
32298;BME280;18782;48.984;8.548;2023-02-13T08:15:25;101988.91;;;3.68;100.00
32298;BME280;18782;48.984;8.548;2023-02-13T08:17:52;101989.38;;;3.44;100.00
32298;BME280;18782;48.984;8.548;2023-02-13T08:20:20;101993.09;;;3.18;100.00
32298;BME280;18782;48.984;8.548;2023-02-13T08:22:50;102000.38;;;3.13;100.00
32298;BME280;18782;48.984;8.548;2023-02-13T08:25:18;101996.19;;;3.14;99.75
32298;BME280;18782;48.984;8.548;2023-02-13T08:27:46;101991.69;;;3.11;98.35
32298;BME280;18782;48.984;8.548;2023-02-13T08:30:14;101996.22;;;3.24;98.27
32298;BME280;18782;48.984;8.548;2023-02-13T08:32:42;101994.56;;;3.25;97.86
32298;BME280;18782;48.984;8.548;2023-02-13T08:35:19;101990.34;;;3.25;97.43
32298;BME280;18782;48.984;8.548;2023-02-13T08:37:48;101990.88;;;3.31;97.82
32298;BME280;18782;48.984;8.548;2023-02-13T08:40:17;101993.19;;;3.38;97.26
32298;BME280;18782;48.984;8.548;2023-02-13T08:42:45;101991.91;;;3.44;97.67
32298;BME280;18782;48.984;8.548;2023-02-13T08:45:12;101987.88;;;3.56;96.95
32298;BME280;18782;48.984;8.548;2023-02-13T08:47:40;101993.63;;;3.74;97.91
32298;BME280;18782;48.984;8.548;2023-02-13T08:50:08;101993.03;;;3.86;96.82
32298;BME280;18782;48.984;8.548;2023-02-13T08:52:36;101993.00;;;3.97;95.03
32298;BME280;18782;48.984;8.548;2023-02-13T08:55:04;101989.19;;;4.12;94.62
32298;BME280;18782;48.984;8.548;2023-02-13T08:57:34;101993.75;;;4.26;93.94
32298;BME280;18782;48.984;8.548;2023-02-13T09:00:02;101995.13;;;4.43;92.23
32298;BME280;18782;48.984;8.548;2023-02-13T09:02:30;101984.91;;;4.53;91.64
32298;BME280;18782;48.984;8.548;2023-02-13T09:04:58;101995.25;;;4.65;90.80
32298;BME280;18782;48.984;8.548;2023-02-13T09:07:26;101992.66;;;4.75;90.46
32298;BME280;18782;48.984;8.548;2023-02-13T09:09:54;101988.53;;;4.87;89.73
32298;BME280;18782;48.984;8.548;2023-02-13T09:12:21;102000.84;;;5.03;89.72
32298;BME280;18782;48.984;8.548;2023-02-13T09:14:50;101999.91;;;5.13;89.96
32298;BME280;18782;48.984;8.548;2023-02-13T09:17:18;101998.56;;;5.28;89.40
32298;BME280;18782;48.984;8.548;2023-02-13T09:19:46;101994.88;;;5.46;88.45
32298;BME280;18782;48.984;8.548;2023-02-13T09:22:13;101998.56;;;5.72;87.24
32298;BME280;18782;48.984;8.548;2023-02-13T09:24:43;101991.59;;;6.03;86.30
32298;BME280;18782;48.984;8.548;2023-02-13T09:27:10;101993.38;;;6.16;84.60
32298;BME280;18782;48.984;8.548;2023-02-13T09:29:38;102001.97;;;6.28;82.83
32298;BME280;18782;48.984;8.548;2023-02-13T09:32:07;102000.06;;;6.25;81.22
32298;BME280;18782;48.984;8.548;2023-02-13T09:34:35;102000.31;;;6.17;81.46
32298;BME280;18782;48.984;8.548;2023-02-13T09:37:03;101998.97;;;6.22;81.34
32298;BME280;18782;48.984;8.548;2023-02-13T09:39:31;102002.28;;;6.21;80.34
32298;BME280;18782;48.984;8.548;2023-02-13T09:41:59;102004.28;;;6.25;81.46
32298;BME280;18782;48.984;8.548;2023-02-13T09:44:32;102005.78;;;6.33;81.73
32298;BME280;18782;48.984;8.548;2023-02-13T09:47:04;102007.25;;;6.53;80.50
32298;BME280;18782;48.984;8.548;2023-02-13T09:49:36;102009.47;;;6.72;79.60
32298;BME280;18782;48.984;8.548;2023-02-13T09:52:07;102007.47;;;6.79;78.55
32298;BME280;18782;48.984;8.548;2023-02-13T09:54:36;102008.81;;;6.74;78.95
32298;BME280;18782;48.984;8.548;2023-02-13T09:57:10;102007.13;;;6.75;79.39
32298;BME280;18782;48.984;8.548;2023-02-13T09:59:51;102017.38;;;6.75;77.73
32298;BME280;18782;48.984;8.548;2023-02-13T10:02:35;102010.25;;;6.83;78.56
32298;BME280;18782;48.984;8.548;2023-02-13T10:05:22;102019.47;;;6.92;78.76
32298;BME280;18782;48.984;8.548;2023-02-13T10:07:59;102021.25;;;7.17;78.28
32298;BME280;18782;48.984;8.548;2023-02-13T10:10:50;102025.97;;;7.36;77.36
32298;BME280;18782;48.984;8.548;2023-02-13T10:13:47;102026.91;;;7.61;76.76
32298;BME280;18782;48.984;8.548;2023-02-13T10:16:20;102019.88;;;7.95;75.51
32298;BME280;18782;48.984;8.548;2023-02-13T10:18:52;102018.69;;;8.03;73.28
32298;BME280;18782;48.984;8.548;2023-02-13T10:21:28;102015.38;;;8.04;73.02
32298;BME280;18782;48.984;8.548;2023-02-13T10:23:59;102018.19;;;7.96;72.53
32298;BME280;18782;48.984;8.548;2023-02-13T10:26:30;102023.75;;;8.02;73.18
32298;BME280;18782;48.984;8.548;2023-02-13T10:29:14;102015.16;;;8.01;73.39
32298;BME280;18782;48.984;8.548;2023-02-13T10:32:06;102027.47;;;8.32;74.13
32298;BME280;18782;48.984;8.548;2023-02-13T10:34:40;102023.19;;;8.44;71.59
32298;BME280;18782;48.984;8.548;2023-02-13T10:37:16;102016.50;;;8.46;71.08
32298;BME280;18782;48.984;8.548;2023-02-13T10:39:46;102010.47;;;8.59;71.76
32298;BME280;18782;48.984;8.548;2023-02-13T10:42:20;102009.88;;;8.63;70.84
32298;BME280;18782;48.984;8.548;2023-02-13T10:45:02;102002.47;;;8.81;71.25
32298;BME280;18782;48.984;8.548;2023-02-13T10:47:44;101999.66;;;10.02;79.89
32298;BME280;18782;48.984;8.548;2023-02-13T10:50:21;101991.53;;;10.83;73.31
32298;BME280;18782;48.984;8.548;2023-02-13T10:52:57;101993.03;;;10.79;64.04
32298;BME280;18782;48.984;8.548;2023-02-13T10:55:39;101991.31;;;10.94;70.62
32298;BME280;18782;48.984;8.548;2023-02-13T10:58:18;101991.97;;;11.70;66.56
32298;BME280;18782;48.984;8.548;2023-02-13T11:00:52;101994.56;;;11.70;65.82
32298;BME280;18782;48.984;8.548;2023-02-13T11:03:23;101990.00;;;12.15;64.75
32298;BME280;18782;48.984;8.548;2023-02-13T11:05:53;101985.59;;;12.13;60.33
32298;BME280;18782;48.984;8.548;2023-02-13T11:08:25;101986.94;;;12.22;59.57
32298;BME280;18782;48.984;8.548;2023-02-13T11:10:54;101988.00;;;12.44;59.12
32298;BME280;18782;48.984;8.548;2023-02-13T11:13:24;101979.34;;;12.25;59.83
32298;BME280;18782;48.984;8.548;2023-02-13T11:16:01;101981.09;;;12.43;59.76
32298;BME280;18782;48.984;8.548;2023-02-13T11:18:31;101972.34;;;12.23;58.84
32298;BME280;18782;48.984;8.548;2023-02-13T11:21:03;101979.91;;;12.54;58.49
32298;BME280;18782;48.984;8.548;2023-02-13T11:23:39;101979.09;;;12.21;58.10
32298;BME280;18782;48.984;8.548;2023-02-13T11:26:08;101986.66;;;11.84;58.88
32298;BME280;18782;48.984;8.548;2023-02-13T11:28:43;101975.44;;;11.99;59.29
32298;BME280;18782;48.984;8.548;2023-02-13T11:31:20;101982.00;;;11.60;59.04
32298;BME280;18782;48.984;8.548;2023-02-13T11:33:48;101983.44;;;11.55;60.13
32298;BME280;18782;48.984;8.548;2023-02-13T11:36:23;101983.94;;;11.64;60.33
32298;BME280;18782;48.984;8.548;2023-02-13T11:39:02;101981.34;;;11.81;59.10
32298;BME280;18782;48.984;8.548;2023-02-13T11:41:35;101970.81;;;12.10;58.37
32298;BME280;18782;48.984;8.548;2023-02-13T11:44:03;101975.03;;;12.08;58.94
32298;BME280;18782;48.984;8.548;2023-02-13T11:46:42;101966.50;;;11.93;58.50
32298;BME280;18782;48.984;8.548;2023-02-13T11:49:16;101967.16;;;11.89;59.05
32298;BME280;18782;48.984;8.548;2023-02-13T11:51:46;101960.66;;;12.13;59.19
32298;BME280;18782;48.984;8.548;2023-02-13T11:54:31;101964.00;;;12.82;56.77
32298;BME280;18782;48.984;8.548;2023-02-13T11:57:01;101958.72;;;13.16;55.92
32298;BME280;18782;48.984;8.548;2023-02-13T11:59:38;101960.28;;;13.50;54.00
32298;BME280;18782;48.984;8.548;2023-02-13T12:02:15;101955.09;;;13.50;54.17
32298;BME280;18782;48.984;8.548;2023-02-13T12:04:44;101956.38;;;13.21;54.57
32298;BME280;18782;48.984;8.548;2023-02-13T12:07:16;101954.28;;;13.51;54.00
32298;BME280;18782;48.984;8.548;2023-02-13T12:09:47;101960.81;;;13.81;54.22
32298;BME280;18782;48.984;8.548;2023-02-13T12:12:20;101951.94;;;14.38;52.89
32298;BME280;18782;48.984;8.548;2023-02-13T12:14:49;101946.16;;;14.64;51.38
32298;BME280;18782;48.984;8.548;2023-02-13T12:17:19;101944.81;;;14.96;50.75
32298;BME280;18782;48.984;8.548;2023-02-13T12:19:57;101946.88;;;15.05;50.18
32298;BME280;18782;48.984;8.548;2023-02-13T12:22:30;101931.56;;;14.88;50.35
32298;BME280;18782;48.984;8.548;2023-02-13T12:25:24;101933.91;;;15.05;49.87
32298;BME280;18782;48.984;8.548;2023-02-13T12:28:06;101934.97;;;15.34;50.53
32298;BME280;18782;48.984;8.548;2023-02-13T12:30:48;101926.75;;;15.94;48.60
32298;BME280;18782;48.984;8.548;2023-02-13T12:33:29;101936.50;;;16.26;47.85
32298;BME280;18782;48.984;8.548;2023-02-13T12:36:09;101924.50;;;16.57;46.00
32298;BME280;18782;48.984;8.548;2023-02-13T12:38:51;101926.75;;;16.19;47.10
32298;BME280;18782;48.984;8.548;2023-02-13T12:41:27;101919.34;;;15.80;47.91
32298;BME280;18782;48.984;8.548;2023-02-13T12:44:19;101918.47;;;16.31;46.79
32298;BME280;18782;48.984;8.548;2023-02-13T12:46:55;101915.59;;;16.23;46.99
32298;BME280;18782;48.984;8.548;2023-02-13T12:49:53;101910.09;;;16.68;47.05
32298;BME280;18782;48.984;8.548;2023-02-13T12:52:45;101904.16;;;17.01;45.69
32298;BME280;18782;48.984;8.548;2023-02-13T12:55:25;101906.56;;;17.23;44.41
32298;BME280;18782;48.984;8.548;2023-02-13T12:58:08;101904.69;;;16.89;45.02
32298;BME280;18782;48.984;8.548;2023-02-13T13:00:50;101902.38;;;17.28;45.03
32298;BME280;18782;48.984;8.548;2023-02-13T13:03:31;101907.34;;;16.90;45.55
32298;BME280;18782;48.984;8.548;2023-02-13T13:06:13;101896.59;;;17.38;44.99
32298;BME280;18782;48.984;8.548;2023-02-13T13:09:01;101898.84;;;17.89;43.94
32298;BME280;18782;48.984;8.548;2023-02-13T13:11:47;101897.47;;;18.04;43.49
32298;BME280;18782;48.984;8.548;2023-02-13T13:14:27;101911.84;;;17.89;42.62
32298;BME280;18782;48.984;8.548;2023-02-13T13:17:00;101895.63;;;17.68;43.13
32298;BME280;18782;48.984;8.548;2023-02-13T13:19:35;101889.16;;;17.85;43.46
32298;BME280;18782;48.984;8.548;2023-02-13T13:22:07;101887.94;;;18.06;42.70
32298;BME280;18782;48.984;8.548;2023-02-13T13:24:45;101885.66;;;18.18;42.81
32298;BME280;18782;48.984;8.548;2023-02-13T13:27:19;101885.91;;;17.94;42.41